createdAt,value
2023-08-17T00:02:08.914Z,91.27
2023-08-17T00:04:54.194Z,91.20
2023-08-17T00:07:39.585Z,91.58
2023-08-17T00:10:25.067Z,91.59
2023-08-17T00:13:10.425Z,92.12
2023-08-17T00:15:55.906Z,92.76
2023-08-17T00:18:41.474Z,92.26
2023-08-17T00:21:26.758Z,92.15
2023-08-17T00:24:12.474Z,92.23
2023-08-17T00:26:57.484Z,92.25
2023-08-17T00:29:43.029Z,92.12
2023-08-17T00:32:28.346Z,92.06
2023-08-17T00:35:14.157Z,92.21
2023-08-17T00:38:03.690Z,93.05
2023-08-17T00:40:49.031Z,93.12
2023-08-17T00:43:34.627Z,92.95
2023-08-17T00:46:21.448Z,93.11
2023-08-17T00:49:07.875Z,93.46
2023-08-17T00:51:53.165Z,93.21
2023-08-17T00:54:38.707Z,93.11
2023-08-17T00:57:24.762Z,92.99
2023-08-17T01:00:12.836Z,93.10
2023-08-17T01:02:58.334Z,93.34
2023-08-17T01:05:44.957Z,93.65
2023-08-17T01:08:31.145Z,93.91
2023-08-17T01:11:25.572Z,95.82
2023-08-17T01:14:32.094Z,96.70
2023-08-17T01:17:23.494Z,97.31
2023-08-17T01:20:13.393Z,97.51
2023-08-17T01:23:06.185Z,97.63
2023-08-17T01:25:51.142Z,97.75
2023-08-17T01:28:36.516Z,97.82
2023-08-17T01:31:32.996Z,96.20
2023-08-17T01:34:21.541Z,95.62
2023-08-17T01:37:11.463Z,95.49
2023-08-17T01:39:59.020Z,95.68
2023-08-17T01:42:44.962Z,95.80
2023-08-17T01:45:30.654Z,97.79
2023-08-17T01:48:15.802Z,98.28
2023-08-17T01:51:01.217Z,98.40
2023-08-17T01:53:47.241Z,98.50
2023-08-17T01:56:32.206Z,99.02
2023-08-17T01:59:17.686Z,98.71
2023-08-17T02:02:03.026Z,98.77
2023-08-17T02:04:48.395Z,98.96
2023-08-17T02:07:33.803Z,100.00
2023-08-17T02:10:19.227Z,98.77
2023-08-17T02:13:17.293Z,98.24
2023-08-17T02:16:03.374Z,97.10
2023-08-17T02:18:48.621Z,97.37
2023-08-17T02:21:33.858Z,96.63
2023-08-17T02:24:19.212Z,97.25
2023-08-17T02:27:04.738Z,97.02
2023-08-17T02:29:50.148Z,96.68
2023-08-17T02:32:35.367Z,96.25
2023-08-17T02:35:20.597Z,96.09
2023-08-17T02:38:06.009Z,96.20
2023-08-17T02:40:51.551Z,96.17
2023-08-17T02:43:37.009Z,96.08
2023-08-17T02:46:22.504Z,96.21
2023-08-17T02:49:07.835Z,96.18
2023-08-17T02:51:53.230Z,96.14
2023-08-17T02:54:38.530Z,96.19
2023-08-17T02:57:24.231Z,95.89
2023-08-17T03:00:10.462Z,96.09
2023-08-17T03:02:55.832Z,96.33
2023-08-17T03:05:41.414Z,96.32
2023-08-17T03:08:26.638Z,96.55
2023-08-17T03:11:12.234Z,96.19
2023-08-17T03:14:01.363Z,95.96
2023-08-17T03:16:46.533Z,95.86
2023-08-17T03:19:32.002Z,96.01
2023-08-17T03:22:17.348Z,96.61
2023-08-17T03:25:03.852Z,96.24
2023-08-17T03:27:49.392Z,96.10
2023-08-17T03:30:34.940Z,96.13
2023-08-17T03:33:20.337Z,95.78
2023-08-17T03:36:05.897Z,95.80
2023-08-17T03:38:51.025Z,95.93
2023-08-17T03:41:37.858Z,95.96
2023-08-17T03:44:22.833Z,95.97
2023-08-17T03:47:08.346Z,95.80
2023-08-17T03:49:53.767Z,95.61
2023-08-17T03:52:39.166Z,95.61
2023-08-17T03:55:24.556Z,95.52
2023-08-17T03:58:09.924Z,95.43
2023-08-17T04:00:55.480Z,95.64
2023-08-17T04:03:40.936Z,95.80
2023-08-17T04:06:26.453Z,96.27
2023-08-17T04:09:11.686Z,97.03
2023-08-17T04:11:58.591Z,96.42
2023-08-17T04:14:43.994Z,96.18
2023-08-17T04:17:29.674Z,96.61
2023-08-17T04:20:15.317Z,97.27
2023-08-17T04:23:00.729Z,97.21
2023-08-17T04:25:47.866Z,96.99
2023-08-17T04:28:33.068Z,97.16
2023-08-17T04:31:18.626Z,97.22
2023-08-17T04:34:04.236Z,97.40
2023-08-17T04:36:49.696Z,97.52
2023-08-17T04:39:34.897Z,97.40
2023-08-17T04:42:21.158Z,97.46
2023-08-17T04:45:06.719Z,97.48
2023-08-17T04:47:52.267Z,97.51
2023-08-17T04:50:37.477Z,97.59
2023-08-17T04:53:22.785Z,97.67
2023-08-17T04:56:08.228Z,97.88
2023-08-17T04:58:53.648Z,97.93
2023-08-17T05:01:42.238Z,98.81
2023-08-17T05:04:28.305Z,98.57
2023-08-17T05:07:13.534Z,98.63
2023-08-17T05:09:59.315Z,98.93
2023-08-17T05:12:44.906Z,100.00
2023-08-17T05:15:29.987Z,100.00
2023-08-17T05:18:15.769Z,100.00
2023-08-17T05:21:01.497Z,100.00
2023-08-17T05:23:46.654Z,100.00
2023-08-17T05:26:32.104Z,100.00
2023-08-17T05:29:17.349Z,100.00
2023-08-17T05:32:02.723Z,100.00
2023-08-17T05:34:48.893Z,100.00
2023-08-17T05:37:34.223Z,100.00
2023-08-17T05:40:20.149Z,100.00
2023-08-17T05:43:05.272Z,100.00
2023-08-17T05:45:51.077Z,100.00
2023-08-17T05:48:36.337Z,100.00
2023-08-17T05:51:21.792Z,100.00
2023-08-17T05:54:07.128Z,100.00
2023-08-17T05:56:52.314Z,100.00
2023-08-17T05:59:37.603Z,100.00
2023-08-17T06:02:22.720Z,100.00
2023-08-17T06:05:10.227Z,100.00
2023-08-17T06:07:56.568Z,100.00
2023-08-17T06:10:41.601Z,100.00
2023-08-17T06:13:27.166Z,100.00
2023-08-17T06:16:13.006Z,100.00
2023-08-17T06:18:58.454Z,100.00
2023-08-17T06:21:43.521Z,100.00
2023-08-17T06:24:28.942Z,100.00
2023-08-17T06:27:17.426Z,100.00
2023-08-17T06:30:04.258Z,100.00
2023-08-17T06:32:49.502Z,100.00
2023-08-17T06:35:34.746Z,100.00
2023-08-17T06:38:19.921Z,100.00
2023-08-17T06:41:05.390Z,100.00
2023-08-17T06:43:50.644Z,99.56
2023-08-17T06:46:36.311Z,100.00
2023-08-17T06:49:21.771Z,100.00
2023-08-17T06:52:07.170Z,99.01
2023-08-17T06:54:52.661Z,98.47
2023-08-17T06:57:38.599Z,98.18
2023-08-17T07:00:24.064Z,97.51
2023-08-17T07:03:09.538Z,97.55
2023-08-17T07:05:55.032Z,96.34
2023-08-17T07:08:40.336Z,95.67
2023-08-17T07:11:25.542Z,94.73
2023-08-17T07:14:11.016Z,93.51
2023-08-17T07:16:56.490Z,92.77
2023-08-17T07:22:30.696Z,91.36
2023-08-17T07:25:15.948Z,90.58
2023-08-17T07:28:01.483Z,91.15
2023-08-17T07:30:46.934Z,91.57
2023-08-17T07:33:32.182Z,92.73
2023-08-17T07:36:17.632Z,94.35
2023-08-17T07:39:03.077Z,95.32
2023-08-17T07:41:48.501Z,96.05
2023-08-17T07:44:34.364Z,96.31
2023-08-17T07:47:19.947Z,95.74
2023-08-17T07:50:06.823Z,95.67
2023-08-17T07:52:52.366Z,95.13
2023-08-17T07:55:37.648Z,94.94
2023-08-17T07:58:23.231Z,94.16
2023-08-17T08:01:08.523Z,93.97
2023-08-17T08:03:53.931Z,93.89
2023-08-17T08:06:39.200Z,92.08
2023-08-17T08:09:24.693Z,92.91
2023-08-17T08:12:10.225Z,94.21
2023-08-17T08:14:55.469Z,96.33
2023-08-17T08:17:41.798Z,95.96
2023-08-17T08:20:27.348Z,95.24
2023-08-17T08:23:12.761Z,93.48
2023-08-17T08:25:59.320Z,93.26
2023-08-17T08:28:44.776Z,93.68
2023-08-17T08:31:29.912Z,91.01
2023-08-17T08:34:15.150Z,84.63
2023-08-17T08:37:00.650Z,85.01
2023-08-17T08:39:51.361Z,84.56
2023-08-17T08:42:36.465Z,83.17
2023-08-17T08:45:24.133Z,79.65
2023-08-17T08:48:11.132Z,79.58
2023-08-17T08:50:57.679Z,75.19
2023-08-17T08:53:46.562Z,74.65
2023-08-17T08:56:39.248Z,72.93
2023-08-17T08:59:26.218Z,74.87
2023-08-17T09:02:20.668Z,74.04
2023-08-17T09:05:12.188Z,74.53
2023-08-17T09:07:59.179Z,76.43
2023-08-17T09:10:44.646Z,75.47
2023-08-17T09:13:30.104Z,75.03
2023-08-17T09:16:15.647Z,73.90
2023-08-17T09:19:01.135Z,74.80
2023-08-17T09:21:50.864Z,77.95
2023-08-17T09:24:37.622Z,77.06
2023-08-17T09:27:22.778Z,77.77
2023-08-17T09:30:10.983Z,74.50
2023-08-17T09:32:56.144Z,72.63
2023-08-17T09:35:43.545Z,72.91
2023-08-17T09:38:29.630Z,72.18
2023-08-17T09:41:15.099Z,73.85
2023-08-17T09:44:01.798Z,72.27
2023-08-17T09:46:47.605Z,72.93
2023-08-17T09:49:36.625Z,70.16
2023-08-17T09:52:25.239Z,70.94
2023-08-17T09:55:12.983Z,70.37
2023-08-17T09:57:58.929Z,70.53
2023-08-17T10:00:50.543Z,70.03
2023-08-17T10:03:40.244Z,70.66
2023-08-17T10:06:28.075Z,71.15
2023-08-17T10:09:19.017Z,71.27
2023-08-17T10:12:11.153Z,71.50
2023-08-17T10:15:20.173Z,71.13
2023-08-17T10:18:15.796Z,69.62
2023-08-17T10:21:14.264Z,68.57
2023-08-17T10:23:59.497Z,70.51
2023-08-17T10:26:46.784Z,70.61
2023-08-17T10:29:32.942Z,70.72
2023-08-17T10:32:18.463Z,69.57
2023-08-17T10:35:05.654Z,69.65
2023-08-17T10:37:51.502Z,68.77
2023-08-17T10:40:38.772Z,68.96
2023-08-17T10:43:34.298Z,70.19
2023-08-17T10:46:19.549Z,69.56
2023-08-17T10:49:08.811Z,68.80
2023-08-17T10:52:05.117Z,68.61
2023-08-17T10:54:50.372Z,68.59
2023-08-17T10:57:43.398Z,68.87
2023-08-17T11:00:35.181Z,69.21
2023-08-17T11:03:21.716Z,69.35
2023-08-17T11:06:19.640Z,69.58
2023-08-17T11:09:09.085Z,69.43
2023-08-17T11:11:56.016Z,69.01
2023-08-17T11:14:41.405Z,69.86
2023-08-17T11:17:27.133Z,70.59
2023-08-17T11:20:15.073Z,71.27
2023-08-17T11:23:01.039Z,73.13
2023-08-17T11:25:46.667Z,75.93
2023-08-17T11:28:42.509Z,76.49
2023-08-17T11:31:28.901Z,76.44
2023-08-17T11:34:16.432Z,76.59
2023-08-17T11:37:05.269Z,75.56
2023-08-17T11:39:50.685Z,74.68
2023-08-17T11:42:37.717Z,74.99
2023-08-17T11:45:27.658Z,75.68
2023-08-17T11:48:13.590Z,75.03
2023-08-17T11:50:59.397Z,75.61
2023-08-17T11:53:49.516Z,74.64
2023-08-17T11:56:35.571Z,74.89
2023-08-17T11:59:20.864Z,74.33
2023-08-17T12:02:06.698Z,73.85
2023-08-17T12:04:52.577Z,74.24
2023-08-17T12:07:38.120Z,74.38
2023-08-17T12:10:26.117Z,75.00
2023-08-17T12:13:15.927Z,75.06
2023-08-17T12:16:01.625Z,75.75
2023-08-17T12:18:51.625Z,75.00
2023-08-17T12:21:36.901Z,74.08
2023-08-17T12:24:25.333Z,74.85
2023-08-17T12:27:11.354Z,74.77
2023-08-17T12:29:56.659Z,74.50
2023-08-17T12:32:42.208Z,73.21
2023-08-17T12:35:27.935Z,73.46
2023-08-17T12:38:12.931Z,74.43
2023-08-17T12:40:58.438Z,74.44
2023-08-17T12:43:43.793Z,74.81
2023-08-17T12:46:32.586Z,74.33
2023-08-17T12:49:18.571Z,73.86
2023-08-17T12:52:04.053Z,74.15
2023-08-17T12:54:52.873Z,73.57
2023-08-17T12:57:38.529Z,73.63
2023-08-17T13:00:23.979Z,74.75
2023-08-17T13:03:10.103Z,75.03
2023-08-17T13:05:56.410Z,74.61
2023-08-17T13:08:41.516Z,74.74
2023-08-17T13:11:27.042Z,75.02
2023-08-17T13:14:13.411Z,75.22
2023-08-17T13:16:58.807Z,74.89
2023-08-17T13:19:44.346Z,74.85
2023-08-17T13:22:29.879Z,75.43
2023-08-17T13:25:15.401Z,75.54
2023-08-17T13:28:00.769Z,74.47
2023-08-17T13:30:46.112Z,74.27
2023-08-17T13:33:31.884Z,74.31
2023-08-17T13:36:17.509Z,75.53
2023-08-17T13:39:03.010Z,75.54
2023-08-17T13:41:48.430Z,76.15
2023-08-17T13:44:33.926Z,76.39
2023-08-17T13:47:19.362Z,76.66
2023-08-17T13:50:05.244Z,75.73
2023-08-17T13:52:50.687Z,75.00
2023-08-17T13:55:36.080Z,75.59
2023-08-17T13:58:21.337Z,74.84
2023-08-17T14:01:06.909Z,74.08
2023-08-17T14:03:52.356Z,74.61
2023-08-17T14:06:37.784Z,75.24
2023-08-17T14:09:23.303Z,74.45
2023-08-17T14:12:08.582Z,74.35
2023-08-17T14:14:53.779Z,74.86
2023-08-17T14:17:39.241Z,74.58
2023-08-17T14:20:24.887Z,74.61
2023-08-17T14:23:10.284Z,74.68
2023-08-17T14:25:55.839Z,74.38
2023-08-17T14:28:44.461Z,75.33
2023-08-17T14:31:29.940Z,75.15
2023-08-17T14:34:16.587Z,75.61
2023-08-17T14:37:01.894Z,75.32
2023-08-17T14:39:47.782Z,75.16
2023-08-17T14:42:33.141Z,75.07
2023-08-17T14:45:18.350Z,75.22
2023-08-17T14:48:04.753Z,75.38
2023-08-17T14:50:49.901Z,74.72
2023-08-17T14:53:39.225Z,75.82
2023-08-17T14:56:24.993Z,75.40
2023-08-17T14:59:11.082Z,75.65
2023-08-17T15:01:57.615Z,75.20
2023-08-17T15:04:42.956Z,74.42
2023-08-17T15:07:29.267Z,74.39
2023-08-17T15:10:14.900Z,75.18
2023-08-17T15:13:00.252Z,75.92
2023-08-17T15:15:46.281Z,76.55
2023-08-17T15:18:31.612Z,76.56
2023-08-17T15:21:17.166Z,76.32
2023-08-17T15:24:03.438Z,75.88
2023-08-17T15:26:48.892Z,75.68
2023-08-17T15:29:34.204Z,75.22
2023-08-17T15:32:19.714Z,75.35
2023-08-17T15:35:05.491Z,74.11
2023-08-17T15:37:51.074Z,73.71
2023-08-17T15:40:36.265Z,73.67
2023-08-17T15:43:21.519Z,73.60
2023-08-17T15:46:07.137Z,73.90
2023-08-17T15:48:52.387Z,73.79
2023-08-17T15:51:37.957Z,74.28
2023-08-17T15:54:35.145Z,74.05
2023-08-17T15:57:22.472Z,73.87
2023-08-17T16:00:08.688Z,74.78
2023-08-17T16:02:53.961Z,75.82
2023-08-17T16:05:39.125Z,76.28
2023-08-17T16:08:33.612Z,76.64
2023-08-17T16:11:27.281Z,77.67
2023-08-17T16:14:12.857Z,77.55
2023-08-17T16:16:58.347Z,78.17
2023-08-17T16:19:44.153Z,78.53
2023-08-17T16:22:29.350Z,78.96
2023-08-17T16:25:14.701Z,78.56
2023-08-17T16:28:00.493Z,78.16
2023-08-17T16:30:45.891Z,78.19
2023-08-17T16:33:30.947Z,78.32
2023-08-17T16:36:16.296Z,77.90
2023-08-17T16:39:01.701Z,78.27
2023-08-17T16:41:49.867Z,78.34
2023-08-17T16:44:35.359Z,78.62
2023-08-17T16:47:22.783Z,79.22
2023-08-17T16:50:08.529Z,80.03
2023-08-17T16:52:53.631Z,80.23
2023-08-17T16:55:39.044Z,80.38
2023-08-17T16:58:24.396Z,80.63
2023-08-17T17:01:15.058Z,80.57
2023-08-17T17:04:00.851Z,80.81
2023-08-17T17:06:46.279Z,81.06
2023-08-17T17:09:31.578Z,81.86
2023-08-17T17:12:17.052Z,81.91
2023-08-17T17:15:02.356Z,82.28
2023-08-17T17:17:48.019Z,83.05
2023-08-17T17:20:34.656Z,83.10
2023-08-17T17:23:19.994Z,83.37
2023-08-17T17:26:08.648Z,83.22
2023-08-17T17:28:54.023Z,83.39
2023-08-17T17:31:39.116Z,83.66
2023-08-17T17:34:24.564Z,83.81
2023-08-17T17:37:09.832Z,84.10
2023-08-17T17:39:55.286Z,84.22
2023-08-17T17:42:40.457Z,84.56
2023-08-17T17:45:25.905Z,84.88
2023-08-17T17:48:12.530Z,85.09
2023-08-17T17:50:57.906Z,85.10
2023-08-17T17:53:43.037Z,85.89
2023-08-17T17:56:39.464Z,85.74
2023-08-17T17:59:24.919Z,86.37
2023-08-17T18:02:10.269Z,86.41
2023-08-17T18:04:55.542Z,86.28
2023-08-17T18:07:40.777Z,86.65
2023-08-17T18:10:26.100Z,86.80
2023-08-17T18:13:11.671Z,87.06
2023-08-17T18:15:57.078Z,88.58
2023-08-17T18:18:42.179Z,88.39
2023-08-17T18:21:31.398Z,88.18
2023-08-17T18:24:16.636Z,88.51
2023-08-17T18:27:02.273Z,88.44
2023-08-17T18:29:47.195Z,88.15
2023-08-17T18:32:32.902Z,88.55
2023-08-17T18:35:20.052Z,88.97
2023-08-17T18:38:06.966Z,88.71
2023-08-17T18:40:54.110Z,88.44
2023-08-17T18:43:40.117Z,88.72
2023-08-17T18:46:25.451Z,88.98
2023-08-17T18:49:10.860Z,89.10
2023-08-17T18:51:55.834Z,88.95
2023-08-17T18:54:58.258Z,89.13
2023-08-17T18:57:43.515Z,88.99
2023-08-17T19:00:29.105Z,89.26
2023-08-17T19:03:14.553Z,89.29
2023-08-17T19:05:59.925Z,89.39
2023-08-17T19:08:45.351Z,89.08
2023-08-17T19:11:30.745Z,89.28
2023-08-17T19:14:16.043Z,89.17
2023-08-17T19:17:01.586Z,89.37
2023-08-17T19:19:46.976Z,89.82
2023-08-17T19:22:32.371Z,89.90
2023-08-17T19:25:17.907Z,89.79
2023-08-17T19:28:03.490Z,89.84
2023-08-17T19:30:49.005Z,89.73
2023-08-17T19:33:34.252Z,89.91
2023-08-17T19:36:19.763Z,90.00
2023-08-17T19:39:05.830Z,89.97
2023-08-17T19:41:51.213Z,90.07
2023-08-17T19:44:36.750Z,89.93
2023-08-17T19:47:22.309Z,90.20
2023-08-17T19:50:08.260Z,90.70
2023-08-17T19:52:53.775Z,90.86
2023-08-17T19:55:39.176Z,90.91
2023-08-17T19:58:24.934Z,90.91
2023-08-17T20:01:13.133Z,90.89
2023-08-17T20:03:58.688Z,90.67
2023-08-17T20:09:29.981Z,90.60
2023-08-17T20:12:15.253Z,90.54
2023-08-17T20:15:00.640Z,90.43
2023-08-17T20:17:45.976Z,90.16
2023-08-17T20:20:31.470Z,90.38
2023-08-17T20:23:16.793Z,90.39
2023-08-17T20:26:02.331Z,90.37
2023-08-17T20:28:47.675Z,90.59
2023-08-17T20:31:33.322Z,91.05
2023-08-17T20:34:18.449Z,91.44
2023-08-17T20:37:03.775Z,91.42
2023-08-17T20:39:49.136Z,91.38
2023-08-17T20:42:34.467Z,91.42
2023-08-17T20:45:20.203Z,91.26
2023-08-17T20:48:05.393Z,91.23
2023-08-17T20:50:52.243Z,91.41
2023-08-17T20:53:37.891Z,91.62
2023-08-17T20:56:23.263Z,91.97
2023-08-17T20:59:08.604Z,91.69
2023-08-17T21:01:54.280Z,92.00
2023-08-17T21:04:39.722Z,92.02
2023-08-17T21:07:26.892Z,91.64
2023-08-17T21:10:13.626Z,91.45
2023-08-17T21:12:59.573Z,91.67
2023-08-17T21:15:44.954Z,91.45
2023-08-17T21:18:30.276Z,91.55
2023-08-17T21:21:15.796Z,91.92
2023-08-17T21:24:01.078Z,91.89
2023-08-17T21:26:46.372Z,91.73
2023-08-17T21:29:31.709Z,91.83
2023-08-17T21:32:17.033Z,91.93
2023-08-17T21:35:02.586Z,92.00
2023-08-17T21:37:47.882Z,91.99
2023-08-17T21:40:33.705Z,92.48
2023-08-17T21:43:18.716Z,92.34
2023-08-17T21:46:04.162Z,92.54
2023-08-17T21:48:49.595Z,92.64
2023-08-17T21:51:34.917Z,93.12
2023-08-17T21:54:20.402Z,92.94
2023-08-17T21:57:05.744Z,92.67
2023-08-17T21:59:52.130Z,92.82
2023-08-17T22:02:37.474Z,93.02
2023-08-17T22:05:22.819Z,93.02
2023-08-17T22:08:08.310Z,93.08
2023-08-17T22:10:53.842Z,93.08
2023-08-17T22:13:39.175Z,93.34
2023-08-17T22:16:25.430Z,93.88
2023-08-17T22:19:10.673Z,94.16
2023-08-17T22:21:56.160Z,94.31
2023-08-17T22:24:51.558Z,94.24
2023-08-17T22:27:37.278Z,94.46
2023-08-17T22:30:22.712Z,94.76
2023-08-17T22:33:07.943Z,94.79
2023-08-17T22:35:53.269Z,94.79
2023-08-17T22:38:38.808Z,94.63
2023-08-17T22:41:24.670Z,94.76
2023-08-17T22:44:10.213Z,95.75
2023-08-17T22:46:55.649Z,95.61
2023-08-17T22:49:40.977Z,95.37
2023-08-17T22:52:26.402Z,95.40
2023-08-17T22:55:11.640Z,95.60
2023-08-17T22:57:56.904Z,95.92
2023-08-17T23:00:42.537Z,96.09
2023-08-17T23:03:27.855Z,95.56
2023-08-17T23:06:13.289Z,95.47
2023-08-17T23:08:58.651Z,95.39
2023-08-17T23:11:44.022Z,95.55
2023-08-17T23:14:31.010Z,95.85
2023-08-17T23:17:16.265Z,95.69
2023-08-17T23:20:01.713Z,96.15
2023-08-17T23:22:47.723Z,95.91
2023-08-17T23:25:33.034Z,96.18
2023-08-17T23:28:18.347Z,96.04
2023-08-17T23:31:03.772Z,96.38
2023-08-17T23:33:49.306Z,96.33
2023-08-17T23:36:36.378Z,96.14
2023-08-17T23:39:21.844Z,96.14
2023-08-17T23:42:07.493Z,96.20
2023-08-17T23:44:52.451Z,96.40
2023-08-17T23:47:38.043Z,96.24
2023-08-17T23:50:23.568Z,96.23
2023-08-17T23:53:09.053Z,96.48
2023-08-17T23:55:54.427Z,96.53
2023-08-17T23:58:39.810Z,96.91
